createdAt,value
2023-01-25T00:00:15.261Z,15.77
2023-01-25T00:05:18.090Z,13.80
2023-01-25T00:10:17.230Z,13.47
2023-01-25T00:15:16.749Z,11.52
2023-01-25T00:20:14.818Z,11.18
2023-01-25T00:25:13.680Z,13.95
2023-01-25T00:30:12.417Z,9.05
2023-01-25T00:35:15.029Z,10.05
2023-01-25T00:40:14.831Z,11.50
2023-01-25T00:45:15.478Z,11.88
2023-01-25T00:50:17.342Z,11.55
2023-01-25T00:55:17.519Z,8.35
2023-01-25T01:00:17.499Z,9.85
2023-01-25T01:05:18.079Z,10.15
2023-01-25T01:10:19.939Z,10.27
2023-01-25T01:15:22.247Z,10.30
2023-01-25T01:20:20.368Z,10.38
2023-01-25T01:25:20.703Z,10.60
2023-01-25T01:30:19.565Z,8.55
2023-01-25T01:35:20.686Z,13.75
2023-01-25T01:40:22.813Z,11.75
2023-01-25T01:45:43.181Z,16.10
2023-01-25T01:50:48.468Z,12.65
2023-01-25T01:55:48.477Z,10.07
2023-01-25T02:00:48.916Z,11.63
2023-01-25T02:05:58.413Z,7.82
2023-01-25T02:10:59.426Z,8.95
2023-01-25T02:15:59.360Z,10.43
2023-01-25T02:20:58.660Z,11.77
2023-01-25T02:26:00.663Z,10.45
2023-01-25T02:31:02.764Z,10.40
2023-01-25T02:36:30.712Z,9.63
2023-01-25T02:41:36.168Z,9.82
2023-01-25T02:46:37.585Z,9.27
2023-01-25T02:51:40.019Z,8.93
2023-01-25T02:56:41.477Z,14.13
2023-01-25T03:01:46.205Z,10.63
2023-01-25T03:06:46.305Z,11.65
2023-01-25T03:11:48.404Z,15.15
2023-01-25T03:21:52.476Z,12.57
2023-01-25T03:27:12.240Z,13.85
2023-01-25T03:32:30.377Z,17.88
2023-01-25T03:37:36.728Z,20.17
2023-01-25T03:42:36.516Z,15.52
2023-01-25T03:47:35.062Z,16.10
2023-01-25T03:52:44.163Z,15.40
2023-01-25T03:57:49.201Z,14.93
2023-01-25T04:02:53.032Z,14.30
2023-01-25T04:07:55.318Z,13.20
2023-01-25T04:13:02.228Z,12.88
2023-01-25T04:18:00.972Z,14.23
2023-01-25T04:23:01.389Z,9.98
2023-01-25T04:28:12.047Z,11.07
2023-01-25T04:33:22.501Z,10.18
2023-01-25T04:38:23.409Z,26.70
2023-01-25T04:43:27.448Z,14.98
2023-01-25T04:48:30.957Z,13.88
2023-01-25T04:53:43.654Z,11.40
2023-01-25T04:58:44.150Z,14.90
2023-01-25T05:03:44.655Z,12.70
2023-01-25T05:08:53.207Z,19.70
2023-01-25T05:13:54.045Z,15.85
2023-01-25T05:19:01.424Z,16.10
2023-01-25T05:24:12.572Z,17.63
2023-01-25T05:29:11.902Z,17.23
2023-01-25T05:34:22.976Z,17.55
2023-01-25T05:39:24.605Z,16.88
2023-01-25T05:44:28.862Z,16.10
2023-01-25T05:49:27.837Z,22.02
2023-01-25T05:54:26.987Z,23.10
2023-01-25T05:59:32.691Z,19.80
2023-01-25T06:04:32.619Z,20.30
2023-01-25T06:09:31.290Z,22.63
2023-01-25T06:14:33.014Z,21.02
2023-01-25T06:24:53.582Z,18.85
2023-01-25T06:29:52.243Z,20.75
2023-01-25T06:34:51.180Z,20.85
2023-01-25T06:52:44.027Z,25.23
2023-01-25T06:57:50.267Z,24.55
2023-01-25T07:02:51.099Z,24.45
2023-01-25T07:07:50.480Z,23.60
2023-01-25T07:12:52.913Z,18.38
2023-01-25T07:18:15.721Z,20.20
2023-01-25T07:23:15.468Z,24.70
2023-01-25T07:28:15.570Z,24.52
2023-01-25T07:33:16.513Z,20.40
2023-01-25T07:38:18.237Z,24.83
2023-01-25T07:43:17.521Z,21.17
2023-01-25T07:48:17.368Z,35.75
2023-01-25T07:53:17.504Z,31.48
2023-01-25T07:58:17.567Z,24.38
2023-01-25T08:03:16.085Z,27.70
2023-01-25T08:08:15.039Z,28.02
2023-01-25T08:13:20.265Z,23.60
2023-01-25T08:18:18.892Z,25.90
2023-01-25T08:23:22.831Z,24.92
2023-01-25T08:28:22.992Z,21.88
2023-01-25T08:33:23.587Z,23.67
2023-01-25T08:38:24.132Z,25.75
2023-01-25T08:43:22.591Z,23.02
2023-01-25T08:48:21.832Z,19.70
2023-01-25T08:53:20.629Z,24.73
2023-01-25T08:58:21.875Z,26.10
2023-01-25T09:03:20.627Z,29.20
2023-01-25T09:08:20.421Z,18.25
2023-01-25T09:13:19.583Z,23.55
2023-01-25T09:18:18.668Z,23.15
2023-01-25T09:23:17.057Z,15.75
2023-01-25T09:28:15.802Z,18.45
2023-01-25T09:33:14.972Z,26.88
2023-01-25T09:39:08.883Z,18.10
2023-01-25T09:44:24.044Z,19.73
2023-01-25T09:55:33.005Z,18.95
2023-01-25T10:00:36.707Z,15.30
2023-01-25T10:05:55.048Z,17.60
2023-01-25T10:11:10.924Z,18.40
2023-01-25T10:16:25.638Z,17.73
2023-01-25T10:21:30.756Z,19.60
2023-01-25T10:26:37.011Z,19.33
2023-01-25T10:31:46.728Z,16.33
2023-01-25T10:36:48.150Z,21.38
2023-01-25T10:41:52.107Z,18.88
2023-01-25T10:46:59.443Z,28.05
2023-01-25T10:52:13.223Z,17.38
2023-01-25T10:57:17.197Z,13.07
2023-01-25T11:02:38.041Z,16.40
2023-01-25T11:07:36.161Z,23.33
2023-01-25T11:12:38.849Z,14.50
2023-01-25T11:17:37.275Z,14.85
2023-01-25T11:22:36.450Z,16.15
2023-01-25T11:27:34.862Z,20.58
2023-01-25T11:32:36.297Z,18.73
2023-01-25T11:37:45.863Z,12.85
2023-01-25T11:43:12.887Z,17.48
2023-01-25T11:48:50.696Z,12.90
2023-01-25T11:54:17.495Z,20.73
2023-01-25T11:59:34.844Z,13.50
2023-01-25T12:05:21.998Z,12.23
2023-01-25T12:10:22.893Z,16.30
2023-01-25T12:15:44.941Z,11.18
2023-01-25T12:21:01.293Z,9.73
2023-01-25T12:26:10.081Z,10.90
2023-01-25T12:31:22.629Z,14.20
2023-01-25T12:36:41.381Z,15.45
2023-01-25T12:41:53.097Z,12.98
2023-01-25T12:47:15.597Z,11.32
2023-01-25T12:52:28.411Z,10.10
2023-01-25T12:57:51.997Z,9.70
2023-01-25T13:03:14.310Z,10.63
2023-01-25T13:08:30.991Z,10.68
2023-01-25T13:13:33.405Z,6.65
2023-01-25T13:18:32.648Z,13.02
2023-01-25T13:23:35.332Z,10.00
2023-01-25T13:28:43.469Z,9.02
2023-01-25T13:33:43.380Z,12.88
2023-01-25T13:38:41.598Z,11.77
2023-01-25T13:43:42.317Z,10.55
2023-01-25T13:48:54.196Z,11.25
2023-01-25T13:54:00.233Z,12.85
2023-01-25T13:58:59.345Z,11.45
2023-01-25T14:04:02.154Z,11.35
2023-01-25T14:09:08.068Z,17.97
2023-01-25T14:14:26.849Z,12.85
2023-01-25T14:20:02.433Z,16.85
2023-01-25T14:25:16.607Z,17.15
2023-01-25T14:30:26.954Z,16.27
2023-01-25T14:35:42.418Z,17.65
2023-01-25T14:40:52.528Z,16.17
2023-01-25T14:45:55.481Z,11.95
2023-01-25T14:52:00.293Z,16.08
2023-01-25T14:57:48.997Z,13.93
2023-01-25T15:02:59.456Z,13.63
2023-01-25T15:08:09.333Z,15.63
2023-01-25T15:13:14.803Z,16.35
2023-01-25T15:18:53.642Z,13.60
2023-01-25T15:23:59.020Z,14.50
2023-01-25T15:29:02.795Z,19.45
2023-01-25T15:39:01.777Z,14.52
2023-01-25T15:44:01.521Z,14.82
2023-01-25T15:49:00.399Z,16.73
2023-01-25T15:53:59.293Z,18.13
2023-01-25T15:59:01.910Z,12.13
2023-01-25T16:04:00.149Z,27.00
2023-01-25T16:09:01.548Z,17.25
2023-01-25T16:14:05.519Z,14.02
2023-01-25T16:19:04.319Z,15.18
2023-01-25T16:24:05.338Z,17.98
2023-01-25T16:29:05.415Z,15.00
2023-01-25T16:34:06.400Z,12.55
2023-01-25T16:39:26.092Z,14.73
2023-01-25T16:44:26.102Z,15.65
2023-01-25T16:49:30.664Z,16.45
2023-01-25T16:54:30.414Z,17.70
2023-01-25T16:59:28.814Z,16.63
2023-01-25T17:04:29.938Z,17.40
2023-01-25T17:09:30.951Z,14.35
2023-01-25T17:14:28.797Z,15.52
2023-01-25T17:19:29.045Z,18.02
2023-01-25T17:24:32.352Z,18.30
2023-01-25T17:29:32.718Z,16.42
2023-01-25T17:34:33.957Z,19.20
2023-01-25T17:39:44.750Z,16.77
2023-01-25T17:44:45.756Z,34.40
2023-01-25T17:49:48.296Z,18.20
2023-01-25T17:54:47.448Z,19.40
2023-01-25T17:59:51.077Z,19.15
2023-01-25T18:04:48.718Z,20.13
2023-01-25T18:09:49.479Z,13.60
2023-01-25T18:14:50.258Z,14.40
2023-01-25T18:19:54.533Z,17.08
2023-01-25T18:25:02.042Z,16.08
2023-01-25T18:30:25.821Z,13.32
2023-01-25T18:35:26.310Z,14.00
2023-01-25T18:40:30.927Z,17.23
2023-01-25T18:45:30.323Z,16.58
2023-01-25T18:50:30.082Z,18.73
2023-01-25T18:55:31.942Z,16.48
2023-01-25T19:00:32.767Z,18.30
2023-01-25T19:05:37.029Z,16.13
2023-01-25T19:10:48.103Z,22.45
2023-01-25T19:15:48.704Z,21.75
2023-01-25T19:20:48.403Z,20.20
2023-01-25T19:25:56.665Z,18.77
2023-01-25T19:30:58.527Z,15.25
2023-01-25T19:36:01.409Z,19.88
2023-01-25T19:41:12.263Z,19.53
2023-01-25T19:46:46.455Z,20.58
2023-01-25T19:51:55.648Z,18.73
2023-01-25T19:57:00.676Z,22.95
2023-01-25T20:02:00.734Z,19.75
2023-01-25T20:07:05.180Z,14.23
2023-01-25T20:12:10.470Z,21.67
2023-01-25T20:17:09.161Z,17.90
2023-01-25T20:22:10.494Z,19.95
2023-01-25T20:27:11.909Z,19.90
2023-01-25T20:32:20.056Z,17.70
2023-01-25T20:37:48.554Z,24.17
2023-01-25T20:42:51.241Z,14.98
2023-01-25T20:47:50.162Z,17.48
2023-01-25T20:52:48.125Z,17.55
2023-01-25T20:57:53.502Z,17.77
2023-01-25T21:02:52.958Z,22.83
2023-01-25T21:07:51.783Z,18.02
2023-01-25T21:12:56.067Z,23.83
2023-01-25T21:17:55.376Z,17.88
2023-01-25T21:22:56.709Z,20.10
2023-01-25T21:27:57.427Z,19.13
2023-01-25T21:32:58.883Z,17.02
2023-01-25T21:37:57.032Z,18.77
2023-01-25T21:42:55.518Z,24.38
2023-01-25T21:48:00.214Z,21.77
2023-01-25T21:52:59.760Z,18.92
2023-01-25T21:57:58.635Z,19.75
2023-01-25T22:02:58.188Z,17.92
2023-01-25T22:08:01.721Z,16.73
2023-01-25T22:13:13.148Z,18.25
2023-01-25T22:18:15.379Z,19.70
2023-01-25T22:23:16.767Z,23.45
2023-01-25T22:28:16.693Z,18.80
2023-01-25T22:33:22.407Z,23.75
2023-01-25T22:38:23.521Z,25.42
2023-01-25T22:43:24.259Z,18.85
2023-01-25T22:48:25.617Z,28.75
2023-01-25T22:53:38.632Z,21.08
2023-01-25T22:58:42.658Z,23.87
2023-01-25T23:03:45.073Z,23.25
2023-01-25T23:08:44.104Z,21.90
2023-01-25T23:14:03.612Z,24.90
2023-01-25T23:19:04.265Z,23.40
2023-01-25T23:24:05.806Z,25.17
2023-01-25T23:29:09.945Z,26.73
2023-01-25T23:34:07.671Z,24.88
2023-01-25T23:39:12.539Z,25.23
2023-01-25T23:44:14.167Z,30.85
2023-01-25T23:49:20.544Z,31.55
2023-01-25T23:54:32.966Z,25.58
2023-01-25T23:59:34.777Z,30.10
